FWKI/LLW METAR and TAF weather

Enter ICAO airport designator
Station Type Date Time Source
FWKI METAR 2019/04/18 16:00 UTC NOAA

FWKI 181600Z 09008KT 9999 TS FEW030CB 22/18 Q1021 NOSIG


Station Type Date Time Source
FWKI Decoded METAR 2019/04/18 16:00 UTC NOAA

Lilongwe International Airport, Malawi (FWKI) 13-47S 033-46E 1229M
Apr 18, 2019 - 12:00 PM EDT / 2019.04.18 1600 UTC
Wind: from the E (090 degrees) at 9 MPH (8 KT):0
Visibility: greater than 7 mile(s):0
Sky conditions: mostly clear
Weather: thunder; Cumulonimbus clouds observed
Temperature: 71 F (22 C)
Dew Point: 64 F (18 C)
Relative Humidity: 78%
Pressure (altimeter): 30.15 in. Hg (1021 hPa)
ob: FWKI 181600Z 09008KT 9999 TS FEW030CB 22/18 Q1021 NOSIG
cycle: 16

Station Type Date Time Source
FWKI TAF 2019/04/18 18:03 UTC NOAA

TAF TAF FWKI 181600Z 1818/1924 10008KT 9999 FEW035CB
BECMG 1818/1820 10005KT CAVOK PROB30
TEMPO 1901/1905 6000 BCFG FEW006
BECMG 1906/1908 12005KT 9999 SCT020
BECMG 1909/1911 FEW025CB
FM191500 08008KT CAVOK

Example: see airport list